Fort Richardson, AK (99505)

11:38 AM AKST on November 28, 2014 (GMT -0900)
AKDOT Glenn Highway @ S Curves MP 9.9 | Change Station
CLOSE
Current Station
Personal Weather Station
Location: Fort Richardson, AK
Elevation: 472 ft
Nearby Weather Stations

Elev 472 ft 61.28 °N, 149.63 °W | Updated 48 minutes ago

Overcast
Overcast
18 °F
Feels Like 18 °F
N
0
Wind Variable Wind from West
Gusts 0.0 mph

Today
High -- | Low -- °F
--% Chance of Precip.
Yesterday
High -- | Low -- °F
Precip. -- in
9:38 AM 3:54 PM
Waxing Crescent, 43% visible
Pressure 30.19 in
Visibility 10.0 miles
Clouds Overcast 4400 ft
Windchill 18 °F
Dew Point 16 °F
Humidity 92%
Rainfall -999.00 in
Snow Depth Not available.
UV 0 out of 12
Pollen Not available.
Air Quality Not available.
Flu Activity Not available.
METAR PAED 281958Z AUTO 08001KT 10SM OVC044 M07/M08 A3019 RMK AO2 SLP222 T10661077

More Conditions Fewer Conditions

Pressure 30.19 in
Visibility 10.0 miles
Clouds Overcast 4400 ft
Windchill 18 °F
Dew Point 16 °F
Humidity 92%
Rainfall -999.00 in
Snow Depth Not available.
UV 0 out of 12
Pollen Not available.
Air Quality Not available.
Flu Activity Not available.
METAR PAED 281958Z AUTO 08001KT 10SM OVC044 M07/M08 A3019 RMK AO2 SLP222 T10661077

More Conditions Fewer Conditions

10-Day Weather Forecast

Almanac

Astronomy

Nov. 28, 2014 Rise Set
Actual Time
Civil Twilight
Nautical Twilight
Astronomical Twilight
Moon
Length of Visible Light
Length of Day
Tomorrow will be .
, % of the Moon is Illuminated

Today's Extremes

State Highs State Lows

Community

WunderPhotos

Upload Photos

1,774,274 photos uploaded!

WunderBlogs® & News

Nearby

Air Quality

  Air Quality AQ Index Pollutant
Not available.

Snow Depth

Station Depth Elevation

Earthquake Activity

City Distance Mag. Time & Date
Minimum magnitude displayed is 2.5.

Coastal Water Temperatures

Place Temperature

Nearby Weather Stations